FMSD

Tôlanaro Airport

Tôlanaro, Comoros
METAR FMSD 171100Z 06018KT 9999 FEW020 30/24 Q1016
Observed Flight Rules
Dec-17 @ 11:00 UTC (an hour ago) Visual Flight Rules
Wind Visibility Clouds
60° at 18 knots 10,000+ meters
  • Few at 2,000' AGL
Temperatures Readings
Current 30°C / 86°F
Dewpoint 24°C / 75°F
Humidity 70%
Altimeter 30" Hg
Pressure 1016 hPa
Elevation 9
METAR FMSD 171100Z 06018KT 9999 FEW020 30/24 Q1016
Observed Flight Rules
Dec-17 @ 11:00 UTC
(an hour ago)
VFR
Wind Visibility
60° at 18 knots 10,000+ meters
Clouds
  • Few at 2,000' AGL
Temperature Dewpoint
30°C / 86°F 24°C / 75°F
Humidity Altimeter Pressure
70% 30" Hg 1016 hPa